sensor_id;sensor_type;location;lat;lon;timestamp;P1;durP1;ratioP1;P2;durP2;ratioP2
12721;SDS011;6425;50.316;8.114;2023-06-14T00:00:00;7.2;;;6.6;;
12721;SDS011;6425;50.316;8.114;2023-06-14T00:03:00;7.2;;;6.6;;
12721;SDS011;6425;50.316;8.114;2023-06-14T00:06:00;8.3;;;7.3;;
12721;SDS011;6425;50.316;8.114;2023-06-14T00:09:00;8;;;7.2;;
12721;SDS011;6425;50.316;8.114;2023-06-14T00:12:00;8;;;7.2;;
12721;SDS011;6425;50.316;8.114;2023-06-14T00:15:00;8.7;;;7.5;;
12721;SDS011;6425;50.316;8.114;2023-06-14T00:18:00;8.7;;;7.5;;
12721;SDS011;6425;50.316;8.114;2023-06-14T00:21:00;8;;;7.2;;
12721;SDS011;6425;50.316;8.114;2023-06-14T00:24:00;10.4;;;7.3;;
12721;SDS011;6425;50.316;8.114;2023-06-14T00:27:00;10.4;;;7.3;;
12721;SDS011;6425;50.316;8.114;2023-06-14T00:30:00;8.4;;;7.6;;
12721;SDS011;6425;50.316;8.114;2023-06-14T00:33:00;8.4;;;7.6;;
12721;SDS011;6425;50.316;8.114;2023-06-14T00:36:00;8.3;;;7.5;;
12721;SDS011;6425;50.316;8.114;2023-06-14T00:39:00;9.3;;;7.4;;
12721;SDS011;6425;50.316;8.114;2023-06-14T00:42:00;9.3;;;7.4;;
12721;SDS011;6425;50.316;8.114;2023-06-14T00:45:00;9.1;;;7.9;;
12721;SDS011;6425;50.316;8.114;2023-06-14T00:48:00;9.1;;;7.9;;
12721;SDS011;6425;50.316;8.114;2023-06-14T00:51:00;11;;;7.9;;
12721;SDS011;6425;50.316;8.114;2023-06-14T00:54:00;10.9;;;7.9;;
12721;SDS011;6425;50.316;8.114;2023-06-14T00:57:00;10.9;;;7.9;;
12721;SDS011;6425;50.316;8.114;2023-06-14T01:00:00;9;;;8.1;;
12721;SDS011;6425;50.316;8.114;2023-06-14T01:03:00;9;;;8.1;;
12721;SDS011;6425;50.316;8.114;2023-06-14T01:06:02;9.2;;;8.3;;
12721;SDS011;6425;50.316;8.114;2023-06-14T01:09:02;9.5;;;8.6;;
12721;SDS011;6425;50.316;8.114;2023-06-14T01:12:00;9.5;;;8.6;;
12721;SDS011;6425;50.316;8.114;2023-06-14T01:15:00;9.6;;;8.7;;
12721;SDS011;6425;50.316;8.114;2023-06-14T01:18:00;9.6;;;8.7;;
12721;SDS011;6425;50.316;8.114;2023-06-14T01:21:00;9.6;;;8.7;;
12721;SDS011;6425;50.316;8.114;2023-06-14T01:24:00;11.4;;;9.5;;
12721;SDS011;6425;50.316;8.114;2023-06-14T01:27:00;11.4;;;9.5;;
12721;SDS011;6425;50.316;8.114;2023-06-14T01:30:00;12.1;;;9.7;;
12721;SDS011;6425;50.316;8.114;2023-06-14T01:33:00;10.8;;;9.1;;
12721;SDS011;6425;50.316;8.114;2023-06-14T01:36:00;9.5;;;8.6;;
12721;SDS011;6425;50.316;8.114;2023-06-14T01:39:00;9.7;;;8.6;;
12721;SDS011;6425;50.316;8.114;2023-06-14T01:42:00;9.7;;;8.6;;
12721;SDS011;6425;50.316;8.114;2023-06-14T01:45:00;10.6;;;8.5;;
12721;SDS011;6425;50.316;8.114;2023-06-14T01:48:00;10;;;9;;
12721;SDS011;6425;50.316;8.114;2023-06-14T01:51:00;10;;;9;;
12721;SDS011;6425;50.316;8.114;2023-06-14T01:54:00;9.9;;;8.9;;
12721;SDS011;6425;50.316;8.114;2023-06-14T01:57:00;9.9;;;8.9;;
12721;SDS011;6425;50.316;8.114;2023-06-14T02:00:00;10.4;;;9.3;;
12721;SDS011;6425;50.316;8.114;2023-06-14T02:03:00;9.9;;;8.9;;
12721;SDS011;6425;50.316;8.114;2023-06-14T02:06:00;9.9;;;8.9;;
12721;SDS011;6425;50.316;8.114;2023-06-14T02:09:00;9.3;;;8.3;;
12721;SDS011;6425;50.316;8.114;2023-06-14T02:12:00;9.3;;;8.3;;
12721;SDS011;6425;50.316;8.114;2023-06-14T02:15:00;8.8;;;7.9;;
12721;SDS011;6425;50.316;8.114;2023-06-14T02:18:00;9.1;;;8.2;;
12721;SDS011;6425;50.316;8.114;2023-06-14T02:21:00;9.1;;;8.2;;
12721;SDS011;6425;50.316;8.114;2023-06-14T02:24:00;8.8;;;7.9;;
12721;SDS011;6425;50.316;8.114;2023-06-14T02:27:00;8.8;;;7.9;;
12721;SDS011;6425;50.316;8.114;2023-06-14T02:30:00;10.1;;;7.5;;
12721;SDS011;6425;50.316;8.114;2023-06-14T02:33:00;8.2;;;6.3;;
12721;SDS011;6425;50.316;8.114;2023-06-14T02:36:00;8.2;;;6.3;;
12721;SDS011;6425;50.316;8.114;2023-06-14T02:39:00;8.5;;;7.6;;
12721;SDS011;6425;50.316;8.114;2023-06-14T02:42:00;8.5;;;7.6;;
12721;SDS011;6425;50.316;8.114;2023-06-14T02:45:00;9.4;;;7.1;;
12721;SDS011;6425;50.316;8.114;2023-06-14T02:48:00;8.2;;;6.4;;
12721;SDS011;6425;50.316;8.114;2023-06-14T02:51:00;8.2;;;6.4;;
12721;SDS011;6425;50.316;8.114;2023-06-14T02:54:00;7.7;;;7;;
12721;SDS011;6425;50.316;8.114;2023-06-14T02:57:00;7.7;;;7;;
12721;SDS011;6425;50.316;8.114;2023-06-14T03:00:00;10.7;;;7.6;;
12721;SDS011;6425;50.316;8.114;2023-06-14T03:03:00;7.9;;;7.1;;
12721;SDS011;6425;50.316;8.114;2023-06-14T03:06:00;7.9;;;7.1;;
12721;SDS011;6425;50.316;8.114;2023-06-14T03:09:00;14.7;;;8.5;;
12721;SDS011;6425;50.316;8.114;2023-06-14T03:12:00;14.7;;;8.5;;
12721;SDS011;6425;50.316;8.114;2023-06-14T03:15:00;11.4;;;8.1;;
12721;SDS011;6425;50.316;8.114;2023-06-14T03:18:00;9.2;;;6.7;;
12721;SDS011;6425;50.316;8.114;2023-06-14T03:21:00;9.2;;;6.7;;
12721;SDS011;6425;50.316;8.114;2023-06-14T03:24:00;7.7;;;5.1;;
12721;SDS011;6425;50.316;8.114;2023-06-14T03:27:00;7.7;;;5.1;;
12721;SDS011;6425;50.316;8.114;2023-06-14T03:30:00;8.6;;;5.4;;
12721;SDS011;6425;50.316;8.114;2023-06-14T03:33:00;7.4;;;6.1;;
12721;SDS011;6425;50.316;8.114;2023-06-14T03:36:00;7.4;;;6.1;;
12721;SDS011;6425;50.316;8.114;2023-06-14T03:39:00;6.4;;;5.5;;
12721;SDS011;6425;50.316;8.114;2023-06-14T03:42:00;6.4;;;5.5;;
12721;SDS011;6425;50.316;8.114;2023-06-14T03:45:00;6.3;;;5.3;;
12721;SDS011;6425;50.316;8.114;2023-06-14T03:48:00;8.8;;;5.6;;
12721;SDS011;6425;50.316;8.114;2023-06-14T03:51:00;8.8;;;5.6;;
12721;SDS011;6425;50.316;8.114;2023-06-14T03:54:00;8.6;;;5.5;;
12721;SDS011;6425;50.316;8.114;2023-06-14T03:57:00;8.6;;;5.5;;
12721;SDS011;6425;50.316;8.114;2023-06-14T04:00:00;7.3;;;5.6;;
12721;SDS011;6425;50.316;8.114;2023-06-14T04:03:00;7.8;;;5.7;;
12721;SDS011;6425;50.316;8.114;2023-06-14T04:06:00;7.8;;;5.7;;
12721;SDS011;6425;50.316;8.114;2023-06-14T04:09:00;6.9;;;5.3;;
12721;SDS011;6425;50.316;8.114;2023-06-14T04:12:00;6.9;;;5.3;;
12721;SDS011;6425;50.316;8.114;2023-06-14T04:15:00;9.2;;;5.7;;
12721;SDS011;6425;50.316;8.114;2023-06-14T04:18:00;6.7;;;5.6;;
12721;SDS011;6425;50.316;8.114;2023-06-14T04:21:00;6.7;;;5.6;;
12721;SDS011;6425;50.316;8.114;2023-06-14T04:24:00;9.1;;;4.9;;
12721;SDS011;6425;50.316;8.114;2023-06-14T04:27:00;9.1;;;4.9;;
12721;SDS011;6425;50.316;8.114;2023-06-14T04:30:00;10.1;;;5.6;;
12721;SDS011;6425;50.316;8.114;2023-06-14T04:33:00;8.3;;;5.2;;
12721;SDS011;6425;50.316;8.114;2023-06-14T04:36:00;8.3;;;5.2;;
12721;SDS011;6425;50.316;8.114;2023-06-14T04:39:00;6.3;;;5.7;;
12721;SDS011;6425;50.316;8.114;2023-06-14T04:42:00;6.3;;;5.7;;
12721;SDS011;6425;50.316;8.114;2023-06-14T04:45:00;7.4;;;5.2;;
12721;SDS011;6425;50.316;8.114;2023-06-14T04:48:00;6.8;;;5.2;;
12721;SDS011;6425;50.316;8.114;2023-06-14T04:51:00;6.8;;;5.2;;
12721;SDS011;6425;50.316;8.114;2023-06-14T04:54:00;5.6;;;5;;
12721;SDS011;6425;50.316;8.114;2023-06-14T04:57:00;5.6;;;5;;
12721;SDS011;6425;50.316;8.114;2023-06-14T05:00:00;5.8;;;4.8;;
12721;SDS011;6425;50.316;8.114;2023-06-14T05:03:00;5.2;;;4.7;;
12721;SDS011;6425;50.316;8.114;2023-06-14T05:06:00;5.2;;;4.7;;
12721;SDS011;6425;50.316;8.114;2023-06-14T05:09:00;9.3;;;5.3;;
12721;SDS011;6425;50.316;8.114;2023-06-14T05:12:00;9.3;;;5.3;;
12721;SDS011;6425;50.316;8.114;2023-06-14T05:15:00;6.5;;;4.8;;
12721;SDS011;6425;50.316;8.114;2023-06-14T05:18:00;9.5;;;4.9;;
12721;SDS011;6425;50.316;8.114;2023-06-14T05:21:00;9.5;;;4.9;;
12721;SDS011;6425;50.316;8.114;2023-06-14T05:24:00;7.6;;;4.9;;
12721;SDS011;6425;50.316;8.114;2023-06-14T05:27:00;8;;;4.9;;
12721;SDS011;6425;50.316;8.114;2023-06-14T05:30:00;9.4;;;4.9;;
12721;SDS011;6425;50.316;8.114;2023-06-14T05:33:00;6.1;;;5;;
12721;SDS011;6425;50.316;8.114;2023-06-14T05:36:00;6.1;;;5;;
12721;SDS011;6425;50.316;8.114;2023-06-14T05:39:00;6.9;;;4.8;;
12721;SDS011;6425;50.316;8.114;2023-06-14T05:42:00;7.8;;;4.7;;
12721;SDS011;6425;50.316;8.114;2023-06-14T05:45:00;7.8;;;4.7;;
12721;SDS011;6425;50.316;8.114;2023-06-14T05:48:00;6.8;;;4.5;;
12721;SDS011;6425;50.316;8.114;2023-06-14T05:51:00;6.8;;;4.5;;
12721;SDS011;6425;50.316;8.114;2023-06-14T05:54:00;8;;;4.6;;
12721;SDS011;6425;50.316;8.114;2023-06-14T05:57:00;7.3;;;5.1;;
12721;SDS011;6425;50.316;8.114;2023-06-14T06:00:00;7.3;;;5.1;;
12721;SDS011;6425;50.316;8.114;2023-06-14T06:03:00;6.1;;;4.6;;
12721;SDS011;6425;50.316;8.114;2023-06-14T06:06:00;6.1;;;4.6;;
12721;SDS011;6425;50.316;8.114;2023-06-14T06:09:00;6;;;5.2;;
12721;SDS011;6425;50.316;8.114;2023-06-14T06:12:00;6.2;;;4.5;;
12721;SDS011;6425;50.316;8.114;2023-06-14T06:15:00;6.2;;;4.5;;
12721;SDS011;6425;50.316;8.114;2023-06-14T06:18:00;7.5;;;4.3;;
12721;SDS011;6425;50.316;8.114;2023-06-14T06:21:00;7.5;;;4.3;;
12721;SDS011;6425;50.316;8.114;2023-06-14T06:24:00;5.2;;;4.1;;
12721;SDS011;6425;50.316;8.114;2023-06-14T06:27:00;6.4;;;4.2;;
12721;SDS011;6425;50.316;8.114;2023-06-14T06:30:00;6.4;;;4.2;;
12721;SDS011;6425;50.316;8.114;2023-06-14T06:33:00;6.3;;;4.4;;
12721;SDS011;6425;50.316;8.114;2023-06-14T06:36:00;6.3;;;4.4;;
12721;SDS011;6425;50.316;8.114;2023-06-14T06:39:00;7.6;;;4.1;;
12721;SDS011;6425;50.316;8.114;2023-06-14T06:42:00;6.2;;;4.3;;
12721;SDS011;6425;50.316;8.114;2023-06-14T06:45:00;6.2;;;4.3;;
12721;SDS011;6425;50.316;8.114;2023-06-14T06:48:00;4.3;;;3.5;;
12721;SDS011;6425;50.316;8.114;2023-06-14T06:51:00;4.3;;;3.5;;
12721;SDS011;6425;50.316;8.114;2023-06-14T06:54:00;5;;;3.6;;
12721;SDS011;6425;50.316;8.114;2023-06-14T06:57:00;8;;;3.7;;
12721;SDS011;6425;50.316;8.114;2023-06-14T07:00:00;8;;;3.7;;
12721;SDS011;6425;50.316;8.114;2023-06-14T07:03:00;5.3;;;3.3;;
12721;SDS011;6425;50.316;8.114;2023-06-14T07:06:00;5.3;;;3.3;;
12721;SDS011;6425;50.316;8.114;2023-06-14T07:09:00;3.7;;;3.2;;
12721;SDS011;6425;50.316;8.114;2023-06-14T07:12:00;6.1;;;3.5;;
12721;SDS011;6425;50.316;8.114;2023-06-14T07:15:00;6.1;;;3.5;;
12721;SDS011;6425;50.316;8.114;2023-06-14T07:18:00;4.4;;;3.3;;
12721;SDS011;6425;50.316;8.114;2023-06-14T07:21:00;4.4;;;3.3;;
12721;SDS011;6425;50.316;8.114;2023-06-14T07:24:00;3.8;;;3.4;;
12721;SDS011;6425;50.316;8.114;2023-06-14T07:27:00;6.9;;;3.6;;
12721;SDS011;6425;50.316;8.114;2023-06-14T07:30:00;6.9;;;3.6;;
12721;SDS011;6425;50.316;8.114;2023-06-14T07:33:00;6;;;3.3;;
12721;SDS011;6425;50.316;8.114;2023-06-14T07:36:00;6;;;3.3;;
12721;SDS011;6425;50.316;8.114;2023-06-14T07:39:00;4.6;;;3;;
12721;SDS011;6425;50.316;8.114;2023-06-14T07:42:00;5.4;;;3.2;;
12721;SDS011;6425;50.316;8.114;2023-06-14T07:45:00;5.4;;;3.2;;
12721;SDS011;6425;50.316;8.114;2023-06-14T07:48:00;3.5;;;2.7;;
12721;SDS011;6425;50.316;8.114;2023-06-14T07:51:00;3.5;;;2.7;;
12721;SDS011;6425;50.316;8.114;2023-06-14T07:54:00;2.8;;;2.4;;
12721;SDS011;6425;50.316;8.114;2023-06-14T07:57:00;4.7;;;2.5;;
12721;SDS011;6425;50.316;8.114;2023-06-14T08:00:00;4.7;;;2.5;;
12721;SDS011;6425;50.316;8.114;2023-06-14T08:03:00;4;;;2.3;;
12721;SDS011;6425;50.316;8.114;2023-06-14T08:06:00;4;;;2.3;;
12721;SDS011;6425;50.316;8.114;2023-06-14T08:09:00;3.2;;;2.8;;
12721;SDS011;6425;50.316;8.114;2023-06-14T08:12:00;3.8;;;2.2;;
12721;SDS011;6425;50.316;8.114;2023-06-14T08:15:00;3.8;;;2.2;;
12721;SDS011;6425;50.316;8.114;2023-06-14T08:18:00;3.4;;;2.5;;
12721;SDS011;6425;50.316;8.114;2023-06-14T08:21:00;3.4;;;2.5;;
12721;SDS011;6425;50.316;8.114;2023-06-14T08:24:00;2.5;;;2.3;;
12721;SDS011;6425;50.316;8.114;2023-06-14T08:27:00;6.3;;;2.7;;
12721;SDS011;6425;50.316;8.114;2023-06-14T08:30:00;6.3;;;2.7;;
12721;SDS011;6425;50.316;8.114;2023-06-14T08:33:00;5;;;2.3;;
12721;SDS011;6425;50.316;8.114;2023-06-14T08:36:00;5;;;2.3;;
12721;SDS011;6425;50.316;8.114;2023-06-14T08:39:00;3.1;;;1.8;;
12721;SDS011;6425;50.316;8.114;2023-06-14T08:42:00;3.9;;;2.7;;
12721;SDS011;6425;50.316;8.114;2023-06-14T08:45:00;3.9;;;2.7;;
12721;SDS011;6425;50.316;8.114;2023-06-14T08:48:00;4.1;;;2.2;;
12721;SDS011;6425;50.316;8.114;2023-06-14T08:51:00;4.1;;;2.2;;
12721;SDS011;6425;50.316;8.114;2023-06-14T08:54:00;3.2;;;2.4;;
12721;SDS011;6425;50.316;8.114;2023-06-14T08:57:00;4.5;;;2.2;;
12721;SDS011;6425;50.316;8.114;2023-06-14T09:00:00;4.5;;;2.2;;
12721;SDS011;6425;50.316;8.114;2023-06-14T09:03:00;3.2;;;1.9;;
12721;SDS011;6425;50.316;8.114;2023-06-14T09:06:00;3.2;;;1.9;;
12721;SDS011;6425;50.316;8.114;2023-06-14T09:09:00;3.6;;;2.3;;
12721;SDS011;6425;50.316;8.114;2023-06-14T09:12:00;2.1;;;1.9;;
12721;SDS011;6425;50.316;8.114;2023-06-14T09:15:00;2.1;;;1.9;;
12721;SDS011;6425;50.316;8.114;2023-06-14T09:18:00;2.2;;;2;;
12721;SDS011;6425;50.316;8.114;2023-06-14T09:21:00;2.2;;;2;;
12721;SDS011;6425;50.316;8.114;2023-06-14T09:24:00;2.7;;;2.1;;
12721;SDS011;6425;50.316;8.114;2023-06-14T09:27:00;2.6;;;1.9;;
12721;SDS011;6425;50.316;8.114;2023-06-14T09:30:01;2.6;;;1.9;;
12721;SDS011;6425;50.316;8.114;2023-06-14T09:33:00;2.2;;;2;;
12721;SDS011;6425;50.316;8.114;2023-06-14T09:36:00;2.2;;;2;;
12721;SDS011;6425;50.316;8.114;2023-06-14T09:39:00;1.9;;;1.7;;
12721;SDS011;6425;50.316;8.114;2023-06-14T09:42:00;2.2;;;2;;
12721;SDS011;6425;50.316;8.114;2023-06-14T09:45:00;2.2;;;2;;
12721;SDS011;6425;50.316;8.114;2023-06-14T09:48:00;2.1;;;1.6;;
12721;SDS011;6425;50.316;8.114;2023-06-14T09:51:00;2.1;;;1.6;;
12721;SDS011;6425;50.316;8.114;2023-06-14T09:54:02;3.3;;;1.8;;
12721;SDS011;6425;50.316;8.114;2023-06-14T09:57:00;3.7;;;1.7;;
12721;SDS011;6425;50.316;8.114;2023-06-14T10:00:00;3.7;;;1.7;;
12721;SDS011;6425;50.316;8.114;2023-06-14T10:03:00;5.4;;;2.4;;
12721;SDS011;6425;50.316;8.114;2023-06-14T10:06:00;5.4;;;2.4;;
12721;SDS011;6425;50.316;8.114;2023-06-14T10:09:00;2.5;;;1.8;;
12721;SDS011;6425;50.316;8.114;2023-06-14T10:12:00;2.8;;;1.8;;
12721;SDS011;6425;50.316;8.114;2023-06-14T10:15:00;2.8;;;1.8;;
12721;SDS011;6425;50.316;8.114;2023-06-14T10:18:01;2.8;;;1.6;;
12721;SDS011;6425;50.316;8.114;2023-06-14T10:21:03;2.8;;;1.6;;
12721;SDS011;6425;50.316;8.114;2023-06-14T10:24:01;2.9;;;1.9;;
12721;SDS011;6425;50.316;8.114;2023-06-14T10:27:00;2.7;;;2.1;;
12721;SDS011;6425;50.316;8.114;2023-06-14T10:30:01;2.7;;;2.1;;
12721;SDS011;6425;50.316;8.114;2023-06-14T10:33:03;5.6;;;2.4;;
12721;SDS011;6425;50.316;8.114;2023-06-14T10:36:31;5.6;;;2.4;;
12721;SDS011;6425;50.316;8.114;2023-06-14T10:39:00;2.9;;;2;;
12721;SDS011;6425;50.316;8.114;2023-06-14T10:42:01;2.5;;;2.3;;
12721;SDS011;6425;50.316;8.114;2023-06-14T10:45:00;2.5;;;2.3;;
12721;SDS011;6425;50.316;8.114;2023-06-14T10:48:00;4;;;2.1;;
12721;SDS011;6425;50.316;8.114;2023-06-14T10:51:00;4;;;2.1;;
12721;SDS011;6425;50.316;8.114;2023-06-14T10:54:00;2.5;;;2;;
12721;SDS011;6425;50.316;8.114;2023-06-14T10:57:00;2.4;;;2.1;;
12721;SDS011;6425;50.316;8.114;2023-06-14T11:00:00;2.4;;;2.1;;
12721;SDS011;6425;50.316;8.114;2023-06-14T11:03:16;2.7;;;2.2;;
12721;SDS011;6425;50.316;8.114;2023-06-14T11:06:00;3.5;;;2.2;;
12721;SDS011;6425;50.316;8.114;2023-06-14T11:10:05;6.1;;;2.4;;
12721;SDS011;6425;50.316;8.114;2023-06-14T11:12:00;2.5;;;2.4;;
12721;SDS011;6425;50.316;8.114;2023-06-14T11:15:00;2.5;;;2.4;;
12721;SDS011;6425;50.316;8.114;2023-06-14T11:18:00;4;;;2.8;;
12721;SDS011;6425;50.316;8.114;2023-06-14T11:21:00;4.4;;;2.7;;
12721;SDS011;6425;50.316;8.114;2023-06-14T11:24:00;4.6;;;2.7;;
12721;SDS011;6425;50.316;8.114;2023-06-14T11:27:00;3.2;;;2.3;;
12721;SDS011;6425;50.316;8.114;2023-06-14T11:30:00;3.2;;;2.3;;
12721;SDS011;6425;50.316;8.114;2023-06-14T11:33:00;2.3;;;2.2;;
12721;SDS011;6425;50.316;8.114;2023-06-14T11:36:01;3.6;;;2.6;;
12721;SDS011;6425;50.316;8.114;2023-06-14T11:39:00;3.6;;;2.6;;
12721;SDS011;6425;50.316;8.114;2023-06-14T11:42:00;3.2;;;2.9;;
12721;SDS011;6425;50.316;8.114;2023-06-14T11:45:00;3.2;;;2.9;;
12721;SDS011;6425;50.316;8.114;2023-06-14T11:48:00;3.5;;;2.7;;
12721;SDS011;6425;50.316;8.114;2023-06-14T11:51:00;2.9;;;2.7;;
12721;SDS011;6425;50.316;8.114;2023-06-14T11:54:00;2.9;;;2.7;;
12721;SDS011;6425;50.316;8.114;2023-06-14T11:57:00;3.1;;;2.6;;
12721;SDS011;6425;50.316;8.114;2023-06-14T12:00:00;3.1;;;2.6;;
12721;SDS011;6425;50.316;8.114;2023-06-14T12:03:00;3;;;2.5;;
12721;SDS011;6425;50.316;8.114;2023-06-14T12:06:07;2.9;;;2.7;;
12721;SDS011;6425;50.316;8.114;2023-06-14T12:09:00;2.9;;;2.7;;
12721;SDS011;6425;50.316;8.114;2023-06-14T12:12:00;3.2;;;2.7;;
12721;SDS011;6425;50.316;8.114;2023-06-14T12:15:00;3.2;;;2.7;;
12721;SDS011;6425;50.316;8.114;2023-06-14T12:18:00;2.7;;;2.5;;
12721;SDS011;6425;50.316;8.114;2023-06-14T12:21:00;2.8;;;2.4;;
12721;SDS011;6425;50.316;8.114;2023-06-14T12:24:03;2.8;;;2.4;;
12721;SDS011;6425;50.316;8.114;2023-06-14T12:27:00;2.5;;;2.3;;
12721;SDS011;6425;50.316;8.114;2023-06-14T12:30:00;2.5;;;2.3;;
12721;SDS011;6425;50.316;8.114;2023-06-14T12:33:00;2.4;;;2.1;;
12721;SDS011;6425;50.316;8.114;2023-06-14T12:36:00;2.5;;;2.3;;
12721;SDS011;6425;50.316;8.114;2023-06-14T12:39:00;2.5;;;2.3;;
12721;SDS011;6425;50.316;8.114;2023-06-14T12:42:00;2.3;;;2.1;;
12721;SDS011;6425;50.316;8.114;2023-06-14T12:45:00;2.3;;;2.1;;
12721;SDS011;6425;50.316;8.114;2023-06-14T12:48:00;3.9;;;2.5;;
12721;SDS011;6425;50.316;8.114;2023-06-14T12:51:00;2.8;;;2;;
12721;SDS011;6425;50.316;8.114;2023-06-14T12:54:00;2.8;;;2;;
12721;SDS011;6425;50.316;8.114;2023-06-14T12:57:00;3;;;2.2;;
12721;SDS011;6425;50.316;8.114;2023-06-14T13:00:00;3;;;2.2;;
12721;SDS011;6425;50.316;8.114;2023-06-14T13:03:00;2.6;;;2.4;;
12721;SDS011;6425;50.316;8.114;2023-06-14T13:06:00;3.1;;;2.3;;
12721;SDS011;6425;50.316;8.114;2023-06-14T13:09:00;3.1;;;2.3;;
12721;SDS011;6425;50.316;8.114;2023-06-14T13:12:00;5.4;;;4.7;;
12721;SDS011;6425;50.316;8.114;2023-06-14T13:15:00;5.4;;;4.7;;
12721;SDS011;6425;50.316;8.114;2023-06-14T13:18:00;3.9;;;2.5;;
12721;SDS011;6425;50.316;8.114;2023-06-14T13:21:00;3.6;;;2.1;;
12721;SDS011;6425;50.316;8.114;2023-06-14T13:24:00;3.6;;;2.1;;
12721;SDS011;6425;50.316;8.114;2023-06-14T13:27:00;5.3;;;2.7;;
12721;SDS011;6425;50.316;8.114;2023-06-14T13:30:00;5.3;;;2.7;;
12721;SDS011;6425;50.316;8.114;2023-06-14T13:33:00;3.9;;;2.6;;
12721;SDS011;6425;50.316;8.114;2023-06-14T13:36:00;3.6;;;2.6;;
12721;SDS011;6425;50.316;8.114;2023-06-14T13:39:00;3.6;;;2.6;;
12721;SDS011;6425;50.316;8.114;2023-06-14T13:42:00;4.2;;;2.6;;
12721;SDS011;6425;50.316;8.114;2023-06-14T13:45:00;4.2;;;2.6;;
12721;SDS011;6425;50.316;8.114;2023-06-14T13:48:00;3.6;;;2.7;;
12721;SDS011;6425;50.316;8.114;2023-06-14T13:51:00;3.4;;;2.4;;
12721;SDS011;6425;50.316;8.114;2023-06-14T13:54:00;3.4;;;2.4;;
12721;SDS011;6425;50.316;8.114;2023-06-14T13:57:00;3.1;;;2.8;;
12721;SDS011;6425;50.316;8.114;2023-06-14T14:00:00;3.1;;;2.8;;
12721;SDS011;6425;50.316;8.114;2023-06-14T14:03:00;2.9;;;2.7;;
12721;SDS011;6425;50.316;8.114;2023-06-14T14:06:00;2.5;;;2.4;;
12721;SDS011;6425;50.316;8.114;2023-06-14T14:09:00;2.5;;;2.4;;
12721;SDS011;6425;50.316;8.114;2023-06-14T14:12:00;2.7;;;2.6;;
12721;SDS011;6425;50.316;8.114;2023-06-14T14:15:00;2.7;;;2.6;;
12721;SDS011;6425;50.316;8.114;2023-06-14T14:18:00;2.7;;;2.5;;
12721;SDS011;6425;50.316;8.114;2023-06-14T14:21:00;3.9;;;2.7;;
12721;SDS011;6425;50.316;8.114;2023-06-14T14:24:00;3.9;;;2.7;;
12721;SDS011;6425;50.316;8.114;2023-06-14T14:27:00;3.5;;;2.7;;
12721;SDS011;6425;50.316;8.114;2023-06-14T14:30:00;3.5;;;2.7;;
12721;SDS011;6425;50.316;8.114;2023-06-14T14:33:00;3.2;;;3;;
12721;SDS011;6425;50.316;8.114;2023-06-14T14:36:00;3;;;2.8;;
12721;SDS011;6425;50.316;8.114;2023-06-14T14:39:00;3;;;2.8;;
12721;SDS011;6425;50.316;8.114;2023-06-14T14:42:00;3.3;;;3;;
12721;SDS011;6425;50.316;8.114;2023-06-14T14:45:00;3.3;;;3;;
12721;SDS011;6425;50.316;8.114;2023-06-14T14:48:00;2.6;;;2.4;;
12721;SDS011;6425;50.316;8.114;2023-06-14T14:51:00;4.5;;;2.9;;
12721;SDS011;6425;50.316;8.114;2023-06-14T14:54:00;4.5;;;2.9;;
12721;SDS011;6425;50.316;8.114;2023-06-14T14:57:00;3.3;;;3;;
12721;SDS011;6425;50.316;8.114;2023-06-14T15:00:00;3.3;;;3;;
12721;SDS011;6425;50.316;8.114;2023-06-14T15:03:00;4.2;;;3.1;;
12721;SDS011;6425;50.316;8.114;2023-06-14T15:06:00;4.1;;;2.7;;
12721;SDS011;6425;50.316;8.114;2023-06-14T15:09:00;4.1;;;2.7;;
12721;SDS011;6425;50.316;8.114;2023-06-14T15:12:00;3.3;;;2.7;;
12721;SDS011;6425;50.316;8.114;2023-06-14T15:15:00;3.3;;;2.7;;
12721;SDS011;6425;50.316;8.114;2023-06-14T15:18:00;3.1;;;2.6;;
12721;SDS011;6425;50.316;8.114;2023-06-14T15:21:00;3.3;;;2.7;;
12721;SDS011;6425;50.316;8.114;2023-06-14T15:24:00;3.3;;;2.7;;
12721;SDS011;6425;50.316;8.114;2023-06-14T15:27:00;5.5;;;2.7;;
12721;SDS011;6425;50.316;8.114;2023-06-14T15:30:00;5.5;;;2.7;;
12721;SDS011;6425;50.316;8.114;2023-06-14T15:33:00;3.7;;;2.8;;
12721;SDS011;6425;50.316;8.114;2023-06-14T15:36:00;3.4;;;2.5;;
12721;SDS011;6425;50.316;8.114;2023-06-14T15:39:00;3.4;;;2.5;;
12721;SDS011;6425;50.316;8.114;2023-06-14T15:42:00;2.7;;;2.5;;
12721;SDS011;6425;50.316;8.114;2023-06-14T15:45:00;2.7;;;2.5;;
12721;SDS011;6425;50.316;8.114;2023-06-14T15:48:00;5.8;;;2.9;;
12721;SDS011;6425;50.316;8.114;2023-06-14T15:51:00;4.3;;;2.8;;
12721;SDS011;6425;50.316;8.114;2023-06-14T15:54:00;4.3;;;2.8;;
12721;SDS011;6425;50.316;8.114;2023-06-14T15:57:00;4.5;;;2.8;;
12721;SDS011;6425;50.316;8.114;2023-06-14T16:00:00;4.5;;;2.8;;
12721;SDS011;6425;50.316;8.114;2023-06-14T16:03:00;3.8;;;2.9;;
12721;SDS011;6425;50.316;8.114;2023-06-14T16:06:00;3;;;2.5;;
12721;SDS011;6425;50.316;8.114;2023-06-14T16:09:00;3;;;2.5;;
12721;SDS011;6425;50.316;8.114;2023-06-14T16:12:00;3.4;;;2.7;;
12721;SDS011;6425;50.316;8.114;2023-06-14T16:15:00;3.4;;;2.7;;
12721;SDS011;6425;50.316;8.114;2023-06-14T16:18:00;2.8;;;2.6;;
12721;SDS011;6425;50.316;8.114;2023-06-14T16:21:00;3.3;;;2.6;;
12721;SDS011;6425;50.316;8.114;2023-06-14T16:24:00;3.3;;;2.6;;
12721;SDS011;6425;50.316;8.114;2023-06-14T16:27:00;3.6;;;3.3;;
12721;SDS011;6425;50.316;8.114;2023-06-14T16:30:00;3.6;;;3.3;;
12721;SDS011;6425;50.316;8.114;2023-06-14T16:33:00;4.9;;;3;;
12721;SDS011;6425;50.316;8.114;2023-06-14T16:36:00;3;;;2.8;;
12721;SDS011;6425;50.316;8.114;2023-06-14T16:39:00;3;;;2.8;;
12721;SDS011;6425;50.316;8.114;2023-06-14T16:42:00;2.9;;;2.7;;
12721;SDS011;6425;50.316;8.114;2023-06-14T16:45:00;2.9;;;2.7;;
12721;SDS011;6425;50.316;8.114;2023-06-14T16:48:00;3.4;;;2.7;;
12721;SDS011;6425;50.316;8.114;2023-06-14T16:51:00;3;;;2.8;;
12721;SDS011;6425;50.316;8.114;2023-06-14T16:54:00;3;;;2.8;;
12721;SDS011;6425;50.316;8.114;2023-06-14T16:57:00;3.3;;;3;;
12721;SDS011;6425;50.316;8.114;2023-06-14T17:00:00;3.3;;;3;;
12721;SDS011;6425;50.316;8.114;2023-06-14T17:03:00;3.6;;;3;;
12721;SDS011;6425;50.316;8.114;2023-06-14T17:06:00;3.1;;;2.7;;
12721;SDS011;6425;50.316;8.114;2023-06-14T17:09:00;3.1;;;2.7;;
12721;SDS011;6425;50.316;8.114;2023-06-14T17:12:00;4.7;;;3;;
12721;SDS011;6425;50.316;8.114;2023-06-14T17:15:00;4.7;;;3;;
12721;SDS011;6425;50.316;8.114;2023-06-14T17:18:00;4.6;;;3.7;;
12721;SDS011;6425;50.316;8.114;2023-06-14T17:21:00;4.4;;;4.1;;
12721;SDS011;6425;50.316;8.114;2023-06-14T17:24:00;4.4;;;4.1;;
12721;SDS011;6425;50.316;8.114;2023-06-14T17:27:00;4.1;;;3;;
12721;SDS011;6425;50.316;8.114;2023-06-14T17:30:00;4.1;;;3;;
12721;SDS011;6425;50.316;8.114;2023-06-14T17:33:00;5.7;;;3.2;;
12721;SDS011;6425;50.316;8.114;2023-06-14T17:36:00;4.1;;;3;;
12721;SDS011;6425;50.316;8.114;2023-06-14T17:39:00;4.1;;;3;;
12721;SDS011;6425;50.316;8.114;2023-06-14T17:42:00;5;;;3.3;;
12721;SDS011;6425;50.316;8.114;2023-06-14T17:45:00;5;;;3.3;;
12721;SDS011;6425;50.316;8.114;2023-06-14T17:48:00;2.8;;;2.6;;
12721;SDS011;6425;50.316;8.114;2023-06-14T17:51:00;3.3;;;3;;
12721;SDS011;6425;50.316;8.114;2023-06-14T17:54:00;3.3;;;3;;
12721;SDS011;6425;50.316;8.114;2023-06-14T17:57:00;3.1;;;2.8;;
12721;SDS011;6425;50.316;8.114;2023-06-14T18:00:00;3.1;;;2.8;;
12721;SDS011;6425;50.316;8.114;2023-06-14T18:03:00;4.2;;;3;;
12721;SDS011;6425;50.316;8.114;2023-06-14T18:06:00;3.4;;;2.8;;
12721;SDS011;6425;50.316;8.114;2023-06-14T18:09:00;3.4;;;2.8;;
12721;SDS011;6425;50.316;8.114;2023-06-14T18:12:00;3.3;;;2.8;;
12721;SDS011;6425;50.316;8.114;2023-06-14T18:15:00;3.3;;;2.8;;
12721;SDS011;6425;50.316;8.114;2023-06-14T18:18:00;3.5;;;3;;
12721;SDS011;6425;50.316;8.114;2023-06-14T18:21:00;3;;;2.7;;
12721;SDS011;6425;50.316;8.114;2023-06-14T18:24:00;3;;;2.7;;
12721;SDS011;6425;50.316;8.114;2023-06-14T18:27:00;3.3;;;3;;
12721;SDS011;6425;50.316;8.114;2023-06-14T18:30:00;3.3;;;3;;
12721;SDS011;6425;50.316;8.114;2023-06-14T18:33:00;3.3;;;3;;
12721;SDS011;6425;50.316;8.114;2023-06-14T18:36:00;3.8;;;3.2;;
12721;SDS011;6425;50.316;8.114;2023-06-14T18:39:00;3.8;;;3.2;;
12721;SDS011;6425;50.316;8.114;2023-06-14T18:42:00;3.3;;;3;;
12721;SDS011;6425;50.316;8.114;2023-06-14T18:45:00;3.3;;;3;;
12721;SDS011;6425;50.316;8.114;2023-06-14T18:48:00;3.3;;;3.1;;
12721;SDS011;6425;50.316;8.114;2023-06-14T18:51:00;4.1;;;3.1;;
12721;SDS011;6425;50.316;8.114;2023-06-14T18:54:00;4.1;;;3.1;;
12721;SDS011;6425;50.316;8.114;2023-06-14T18:57:00;3.4;;;3.1;;
12721;SDS011;6425;50.316;8.114;2023-06-14T19:00:00;3.8;;;3.1;;